Arivaca, Arizona
Current Conditions -  °F | °C
As of 3:54 PM on Friday 24 Oct 2014 (Local Time) from KOLS Reporting Station
Clear Clear  
Wind Chill: 86°   Ceiling: Unl
Heat Index: 86°   Visibility: 10mi
Dew Point: 43°   Wind: 5mph
Humidity: 22%   Direction: 290°WNW
Pressure: 30.13"   Gusts: NA
Location:  31.57°N, 111.33°W
Report Text: KOLS 242254Z AUTO 29004KT 10SM CLR 30/06 A3013 RMK AO2 SLP145 T03000061
Loading
Personal Weather Stations






























Interactive Weather Map
Tropical Storm Tracking
New forecast layout! Learn more

10-Day Weather Forecast

Advertisements
Track Severe Weather on mobile